Time;durP1;ratioP1;P1;durP2;ratioP2;P2;SDS_P1;SDS_P2;PMS_P1;PMS_P2;Temp;Humidity;BMP_temperature;BMP_pressure;BME280_temperature;BME280_humidity;BME280_pressure;Samples;Min_cycle;Max_cycle;Signal;HPM_P1;HPM_P2
2022/04/26 03:38:04;;;;;;;;;;;;;;;8.27;100.00;99378.00;12181453;19;19907;-83
2022/04/26 03:42:06;;;;;;;;;;;;;;;8.18;100.00;99383.09;12203141;19;19975;-83
2022/04/26 03:46:09;;;;;;;;;;;;;;;8.23;100.00;99380.41;12183246;19;19910;-83
2022/04/26 03:50:11;;;;;;;;;;;;;;;8.32;100.00;99389.91;12203709;19;19963;-83
2022/04/26 03:54:12;;;;;;;;;;;;;;;8.37;100.00;99391.94;12196901;19;19954;-83
2022/04/26 03:58:14;;;;;;;;;;;;;;;8.43;100.00;99388.25;12175184;19;20711;-82
2022/04/26 04:02:15;;;;;;;;;;;;;;;8.44;100.00;99390.72;12204069;19;19922;-84
2022/04/26 04:06:18;;;;;;;;;;;;;;;8.42;100.00;99397.56;12196779;19;19911;-82
2022/04/26 04:10:19;;;;;;;;;;;;;;;8.46;100.00;99397.91;12175303;19;20630;-82
2022/04/26 04:14:21;;;;;;;;;;;;;;;8.41;100.00;99391.22;12196831;19;19940;-82
2022/04/26 04:23:03;;;;;;;;;;;;;;;8.39;100.00;99392.56;12181056;19;20380;-83
2022/04/26 04:27:05;;;;;;;;;;;;;;;8.43;100.00;99391.00;12200615;19;19929;-83
2022/04/26 04:31:08;;;;;;;;;;;;;;;8.47;100.00;99400.41;12176300;19;19922;-82
2022/04/26 04:35:09;;;;;;;;;;;;;;;8.51;100.00;99409.00;12200397;19;19906;-82
2022/04/26 04:39:13;;;;;;;;;;;;;;;8.53;100.00;99415.88;12198089;19;19914;-82
2022/04/26 04:43:14;;;;;;;;;;;;;;;8.54;100.00;99423.06;12174247;19;20258;-83
2022/04/26 04:47:16;;;;;;;;;;;;;;;8.48;100.00;99426.78;12199140;19;19915;-81
2022/04/26 04:51:17;;;;;;;;;;;;;;;8.52;100.00;99425.22;12204152;19;19932;-82
2022/04/26 04:55:19;;;;;;;;;;;;;;;8.60;100.00;99419.31;12179385;19;19990;-81
2022/04/26 04:59:21;;;;;;;;;;;;;;;8.64;100.00;99425.97;12195533;19;19946;-81
2022/04/26 05:03:22;;;;;;;;;;;;;;;8.65;100.00;99430.38;12194735;19;20340;-82
2022/04/26 05:07:24;;;;;;;;;;;;;;;8.69;100.00;99440.91;12174470;19;19957;-81
2022/04/26 05:11:25;;;;;;;;;;;;;;;8.64;100.00;99442.47;12196099;19;19932;-81
2022/04/26 05:15:29;;;;;;;;;;;;;;;8.60;100.00;99444.03;12195588;19;19915;-81
2022/04/26 05:19:31;;;;;;;;;;;;;;;8.57;100.00;99446.47;12171946;19;19915;-81
2022/04/26 05:27:54;;;;;;;;;;;;;;;8.54;100.00;99453.28;12179429;19;19911;-81
2022/04/26 05:31:56;;;;;;;;;;;;;;;8.55;100.00;99454.09;12194562;19;20384;-79
2022/04/26 05:35:57;;;;;;;;;;;;;;;8.52;100.00;99458.16;12196543;19;19908;-79
2022/04/26 05:40:02;;;;;;;;;;;;;;;8.51;100.00;99461.16;12169382;19;19918;-80
2022/04/26 05:44:03;;;;;;;;;;;;;;;8.41;100.00;99459.03;12197600;19;19950;-80
2022/04/26 05:48:05;;;;;;;;;;;;;;;8.45;100.00;99465.72;12197145;19;19919;-80
2022/04/26 05:52:07;;;;;;;;;;;;;;;8.49;100.00;99466.91;12164110;19;19950;-81
2022/04/26 05:56:10;;;;;;;;;;;;;;;8.49;100.00;99458.66;12196725;19;19987;-80
2022/04/26 06:00:13;;;;;;;;;;;;;;;8.52;100.00;99457.34;12204966;19;19906;-80
2022/04/26 06:04:15;;;;;;;;;;;;;;;8.69;100.00;99465.63;12186797;19;19911;-80
2022/04/26 06:08:17;;;;;;;;;;;;;;;8.82;100.00;99468.06;12201170;19;21670;-80
2022/04/26 06:12:19;;;;;;;;;;;;;;;8.89;100.00;99466.84;12210034;19;19915;-80
2022/04/26 06:16:20;;;;;;;;;;;;;;;8.94;100.00;99465.25;12187538;19;19915;-80
2022/04/26 06:20:24;;;;;;;;;;;;;;;8.99;100.00;99466.19;12208818;19;20006;-81
2022/04/26 06:24:26;;;;;;;;;;;;;;;8.96;100.00;99471.34;12212698;19;19938;-81
2022/04/26 06:28:29;;;;;;;;;;;;;;;8.90;100.00;99478.66;12193293;19;20329;-81
2022/04/26 06:32:31;;;;;;;;;;;;;;;8.84;100.00;99480.47;12204271;19;19913;-80
2022/04/26 06:36:32;;;;;;;;;;;;;;;8.75;100.00;99486.63;12208697;19;19934;-80
2022/04/26 06:40:36;;;;;;;;;;;;;;;8.69;100.00;99482.94;12179836;19;19982;-81
2022/04/26 06:44:38;;;;;;;;;;;;;;;8.68;100.00;99489.50;12204877;19;20014;-80
2022/04/26 06:48:41;;;;;;;;;;;;;;;8.66;100.00;99492.50;12211143;19;19939;-80
2022/04/26 06:52:43;;;;;;;;;;;;;;;8.64;100.00;99494.66;12177362;19;19911;-80
2022/04/26 06:56:46;;;;;;;;;;;;;;;8.63;100.00;99503.97;12204995;19;19986;-80
2022/04/26 07:00:49;;;;;;;;;;;;;;;8.63;100.00;99497.66;12187012;19;20627;-79
2022/04/26 07:04:51;;;;;;;;;;;;;;;8.65;100.00;99510.03;12199780;19;19907;-79
2022/04/26 07:08:53;;;;;;;;;;;;;;;8.66;100.00;99511.72;12204914;19;19934;-79
2022/04/26 07:12:55;;;;;;;;;;;;;;;8.74;100.00;99501.41;12183768;19;19906;-80
2022/04/26 07:16:56;;;;;;;;;;;;;;;8.77;100.00;99506.41;12196474;19;19974;-80
2022/04/26 07:20:58;;;;;;;;;;;;;;;8.77;100.00;99506.41;12206301;19;19974;-81
2022/04/26 07:24:59;;;;;;;;;;;;;;;8.77;100.00;99503.69;12181312;19;19975;-80
2022/04/26 07:29:01;;;;;;;;;;;;;;;8.94;100.00;99501.81;12207669;19;20005;-80
2022/04/26 07:37:23;;;;;;;;;;;;;;;9.24;100.00;99509.75;12163712;19;19923;-79
2022/04/26 07:41:29;;;;;;;;;;;;;;;9.38;100.00;99512.19;12203553;19;20602;-80
2022/04/26 07:45:30;;;;;;;;;;;;;;;9.43;100.00;99512.25;12205365;19;20392;-80
2022/04/26 07:49:32;;;;;;;;;;;;;;;9.63;100.00;99522.78;12186248;19;20001;-79
2022/04/26 07:53:34;;;;;;;;;;;;;;;9.67;100.00;99523.97;12204617;19;20182;-81
2022/04/26 07:57:39;;;;;;;;;;;;;;;9.55;100.00;99526.78;12206248;19;19915;-80
2022/04/26 08:01:40;;;;;;;;;;;;;;;9.40;100.00;99532.88;12181221;19;19922;-80
2022/04/26 08:05:42;;;;;;;;;;;;;;;9.37;100.00;99536.13;12204412;19;19939;-80
2022/04/26 08:09:44;;;;;;;;;;;;;;;9.38;100.00;99539.69;12203299;19;20400;-81
2022/04/26 08:13:46;;;;;;;;;;;;;;;9.38;100.00;99539.69;12184571;19;19918;-80
2022/04/26 08:17:51;;;;;;;;;;;;;;;9.41;100.00;99551.03;12205226;19;19914;-80
2022/04/26 08:21:53;;;;;;;;;;;;;;;9.50;100.00;99555.03;12180752;19;20333;-81
2022/04/26 08:30:16;;;;;;;;;;;;;;;9.90;100.00;99553.19;12209121;19;19974;-80
2022/04/26 08:34:21;;;;;;;;;;;;;;;10.06;100.00;99555.09;12178520;19;20336;-81
2022/04/26 08:38:23;;;;;;;;;;;;;;;10.34;100.00;99565.16;12204006;19;19932;-81
2022/04/26 08:42:34;;;;;;;;;;;;;;;10.43;100.00;99565.56;12199938;19;19918;-79
2022/04/26 08:51:05;;;;;;;;;;;;;;;11.08;100.00;99588.69;12198088;19;19927;-79
2022/04/26 08:55:07;;;;;;;;;;;;;;;11.14;100.00;99590.41;12177463;19;20305;-80
2022/04/26 08:59:08;;;;;;;;;;;;;;;11.25;100.00;99597.69;12203234;19;19907;-80
2022/04/26 09:03:11;;;;;;;;;;;;;;;11.00;100.00;99601.00;12204434;19;20485;-80
2022/04/26 09:07:27;;;;;;;;;;;;;;;11.02;100.00;99596.06;12178901;19;19922;-80
2022/04/26 09:11:33;;;;;;;;;;;;;;;11.25;100.00;99597.69;12197968;19;19942;-80
2022/04/26 09:15:41;;;;;;;;;;;;;;;11.35;100.00;99614.34;12196799;19;19919;-81
2022/04/26 09:19:46;;;;;;;;;;;;;;;11.37;100.00;99609.41;12173820;19;19926;-81
2022/04/26 09:23:57;;;;;;;;;;;;;;;11.46;100.00;99606.19;12202157;19;19927;-81
2022/04/26 09:27:59;;;;;;;;;;;;;;;11.62;100.00;99605.22;12183863;19;19935;-81
2022/04/26 09:32:03;;;;;;;;;;;;;;;12.25;100.00;99609.06;12213599;19;19931;-81
2022/04/26 09:36:06;;;;;;;;;;;;;;;12.56;98.60;99617.59;12211454;19;19910;-82
2022/04/26 09:40:09;;;;;;;;;;;;;;;12.64;97.03;99625.38;12184336;19;19929;-83
2022/04/26 09:44:11;;;;;;;;;;;;;;;12.58;96.64;99620.06;12210508;19;20749;-80
2022/04/26 09:48:23;;;;;;;;;;;;;;;12.86;94.50;99627.13;12211942;19;19903;-81
2022/04/26 09:52:25;;;;;;;;;;;;;;;13.46;92.03;99631.25;12186956;19;19911;-79
2022/04/26 09:56:27;;;;;;;;;;;;;;;13.32;91.20;99635.63;12208767;19;19914;-81
2022/04/26 10:00:29;;;;;;;;;;;;;;;13.32;91.38;99643.94;12208695;19;20506;-81
2022/04/26 10:04:31;;;;;;;;;;;;;;;13.23;91.05;99649.94;12184138;19;20419;-79
2022/04/26 10:08:36;;;;;;;;;;;;;;;13.43;91.00;99642.84;12205382;19;20482;-79
2022/04/26 10:12:39;;;;;;;;;;;;;;;13.44;90.13;99639.84;12203997;19;19930;-78
2022/04/26 10:16:45;;;;;;;;;;;;;;;13.26;89.43;99633.94;12180993;19;19915;-77
2022/04/26 10:20:47;;;;;;;;;;;;;;;13.20;89.30;99642.19;12201828;19;20261;-77
2022/04/26 10:25:07;;;;;;;;;;;;;;;13.09;89.98;99636.91;12181398;19;19914;-79
2022/04/26 10:29:09;;;;;;;;;;;;;;;13.22;88.01;99636.41;12208752;19;19910;-78
2022/04/26 10:33:33;;;;;;;;;;;;;;;12.85;86.15;99653.97;12211675;19;20628;-77
2022/04/26 10:37:37;;;;;;;;;;;;;;;12.42;88.22;99652.31;12200446;19;20367;-77
2022/04/26 10:41:40;;;;;;;;;;;;;;;11.98;89.22;99652.50;12240044;19;19918;-79
2022/04/26 10:46:01;;;;;;;;;;;;;;;11.91;88.71;99651.91;12252101;19;19907;-79
2022/04/26 10:50:05;;;;;;;;;;;;;;;11.76;90.58;99658.91;12226238;19;19918;-80
2022/04/26 10:54:08;;;;;;;;;;;;;;;11.80;89.33;99660.06;12256948;19;19925;-81
2022/04/26 10:58:09;;;;;;;;;;;;;;;12.00;89.56;99656.69;12232697;19;19919;-81
2022/04/26 11:02:12;;;;;;;;;;;;;;;11.92;88.88;99668.19;12254141;19;19922;-84
2022/04/26 11:06:30;;;;;;;;;;;;;;;11.79;89.89;99674.97;12245307;19;19911;-82
2022/04/26 11:14:55;;;;;;;;;;;;;;;12.19;89.65;99676.44;12238488;19;20000;-79
2022/04/26 11:18:56;;;;;;;;;;;;;;;12.66;86.93;99672.09;12204138;19;19915;-78
2022/04/26 11:22:58;;;;;;;;;;;;;;;13.45;85.13;99662.81;12225452;19;19912;-79
2022/04/26 11:31:25;;;;;;;;;;;;;;;13.75;79.85;99675.88;12198886;19;19928;-80
2022/04/26 11:35:28;;;;;;;;;;;;;;;13.73;77.32;99677.25;12222973;19;19928;-80
2022/04/26 11:39:38;;;;;;;;;;;;;;;13.53;74.07;99680.81;12217875;19;19907;-82
2022/04/26 11:43:40;;;;;;;;;;;;;;;13.14;76.84;99687.53;12190963;19;19922;-80
2022/04/26 11:47:51;;;;;;;;;;;;;;;12.71;77.70;99685.94;12217984;19;19996;-81
2022/04/26 11:52:00;;;;;;;;;;;;;;;12.06;80.46;99696.22;12186724;19;19923;-82
2022/04/26 11:56:03;;;;;;;;;;;;;;;11.79;82.26;99708.09;12209291;19;19919;-80
2022/04/26 12:00:05;;;;;;;;;;;;;;;11.56;83.44;99711.13;12210567;19;19928;-81
2022/04/26 12:04:08;;;;;;;;;;;;;;;11.34;85.26;99712.00;12197605;19;19926;-82
2022/04/26 12:08:11;;;;;;;;;;;;;;;11.43;85.29;99709.63;12203381;19;19914;-80
2022/04/26 12:12:13;;;;;;;;;;;;;;;11.50;85.64;99712.19;12213807;19;19922;-80
2022/04/26 12:16:16;;;;;;;;;;;;;;;11.56;85.42;99711.13;12182725;19;19915;-80
2022/04/26 12:20:18;;;;;;;;;;;;;;;11.13;87.19;99715.59;12217170;19;19911;-81
2022/04/26 12:24:26;;;;;;;;;;;;;;;10.92;87.80;99718.09;12214652;19;20344;-81
2022/04/26 12:28:28;;;;;;;;;;;;;;;10.73;88.20;99712.00;12193343;19;20295;-79
2022/04/26 12:32:31;;;;;;;;;;;;;;;10.59;88.83;99713.47;12210426;19;19907;-80
2022/04/26 12:37:10;;;;;;;;;;;;;;;10.49;89.32;99716.06;12213633;19;19922;-79
2022/04/26 12:41:12;;;;;;;;;;;;;;;10.35;90.95;99717.47;12183597;19;19971;-80
2022/04/26 12:45:24;;;;;;;;;;;;;;;10.26;91.51;99723.41;12214858;19;20376;-78
2022/04/26 12:53:51;;;;;;;;;;;;;;;9.71;95.42;99742.47;12205316;19;19910;-79
2022/04/26 12:57:54;;;;;;;;;;;;;;;9.70;94.86;99740.81;12182310;19;19910;-80
2022/04/26 13:01:55;;;;;;;;;;;;;;;9.78;94.62;99745.91;12211747;19;19914;-79
2022/04/26 13:06:09;;;;;;;;;;;;;;;9.83;95.01;99746.00;12209280;19;20533;-79
2022/04/26 13:10:30;;;;;;;;;;;;;;;9.80;96.66;99743.75;12183504;19;19938;-80
2022/04/26 13:14:33;;;;;;;;;;;;;;;9.76;97.08;99751.66;12215369;19;19922;-82
2022/04/26 13:18:46;;;;;;;;;;;;;;;9.91;96.83;99753.03;12200539;19;20447;-80
2022/04/26 13:22:48;;;;;;;;;;;;;;;10.11;95.52;99760.81;12202949;19;19943;-79
2022/04/26 13:26:49;;;;;;;;;;;;;;;10.23;92.57;99759.69;12210384;19;19924;-79
2022/04/26 13:30:51;;;;;;;;;;;;;;;10.41;92.66;99753.13;12187049;19;19938;-79
2022/04/26 13:34:53;;;;;;;;;;;;;;;10.68;89.84;99756.03;12205797;19;20455;-80
2022/04/26 13:38:55;;;;;;;;;;;;;;;11.07;89.24;99761.56;12218731;19;19914;-80
2022/04/26 13:42:57;;;;;;;;;;;;;;;11.52;87.73;99762.44;12178107;19;19935;-80
2022/04/26 13:47:02;;;;;;;;;;;;;;;11.70;85.70;99756.56;12213973;19;19942;-79
2022/04/26 13:51:04;;;;;;;;;;;;;;;11.95;86.20;99766.25;12208322;19;19918;-79
2022/04/26 13:55:05;;;;;;;;;;;;;;;12.07;83.66;99767.75;12189336;19;20339;-80
2022/04/26 13:59:07;;;;;;;;;;;;;;;12.00;81.82;99771.84;12216877;19;19918;-81
2022/04/26 14:03:08;;;;;;;;;;;;;;;12.09;80.72;99767.50;12208136;19;19915;-80
2022/04/26 14:07:10;;;;;;;;;;;;;;;12.11;81.65;99764.50;12187881;19;19923;-79
2022/04/26 14:11:12;;;;;;;;;;;;;;;11.99;81.46;99773.78;12205928;19;19923;-80
2022/04/26 14:23:54;;;;;;;;;;;;;;;11.77;83.24;99779.28;12217589;19;19998;-79
2022/04/26 14:27:55;;;;;;;;;;;;;;;11.61;82.85;99782.97;12191078;19;20005;-79
2022/04/26 14:31:57;;;;;;;;;;;;;;;11.56;82.74;99777.38;12214859;19;19990;-80
2022/04/26 14:36:00;;;;;;;;;;;;;;;11.57;83.33;99774.38;12205005;19;19914;-78
2022/04/26 14:40:03;;;;;;;;;;;;;;;11.76;82.17;99774.84;12194274;19;19915;-79
2022/04/26 14:44:06;;;;;;;;;;;;;;;12.25;80.45;99772.06;12216753;19;20109;-77
2022/04/26 14:48:09;;;;;;;;;;;;;;;12.75;75.96;99778.31;12205757;19;19923;-78
2022/04/26 14:52:16;;;;;;;;;;;;;;;13.26;75.59;99773.13;12172120;19;19919;-80
2022/04/26 14:56:30;;;;;;;;;;;;;;;13.52;73.15;99779.63;12200663;19;19923;-79
2022/04/26 15:00:52;;;;;;;;;;;;;;;13.58;72.80;99774.94;12169888;19;19940;-80
2022/04/26 15:04:54;;;;;;;;;;;;;;;13.53;72.44;99770.22;12169890;19;19967;-79
2022/04/26 15:17:36;;;;;;;;;;;;;;;13.77;68.37;99769.75;12197319;19;19942;-80
2022/04/26 15:21:38;;;;;;;;;;;;;;;13.44;69.29;99772.69;12214237;19;20333;-81
2022/04/26 15:25:40;;;;;;;;;;;;;;;12.90;70.86;99777.59;12176372;19;19914;-79
2022/04/26 15:29:42;;;;;;;;;;;;;;;12.44;73.09;99785.53;12209504;19;19925;-79
2022/04/26 15:33:45;;;;;;;;;;;;;;;12.21;74.21;99789.44;12208389;19;19914;-80
2022/04/26 15:37:46;;;;;;;;;;;;;;;11.72;76.61;99789.41;12183612;19;19919;-80
2022/04/26 15:41:48;;;;;;;;;;;;;;;11.43;77.61;99797.91;12199376;19;19958;-79
2022/04/26 15:45:49;;;;;;;;;;;;;;;11.16;79.85;99789.56;12177686;19;19964;-81
2022/04/26 15:49:51;;;;;;;;;;;;;;;11.25;80.10;99795.47;12199238;19;20270;-80
2022/04/26 15:53:53;;;;;;;;;;;;;;;11.26;80.07;99800.72;12195506;19;19930;-80
2022/04/26 15:57:55;;;;;;;;;;;;;;;11.34;81.05;99803.03;12171862;19;19907;-78
2022/04/26 16:01:56;;;;;;;;;;;;;;;11.51;80.24;99807.66;12195989;19;19911;-80
2022/04/26 16:05:58;;;;;;;;;;;;;;;11.57;81.68;99804.72;12190875;19;19923;-80
2022/04/26 16:23:02;;;;;;;;;;;;;;;11.17;83.23;99827.06;12178150;19;20014;-80
2022/04/26 16:27:08;;;;;;;;;;;;;;;10.85;87.07;99826.84;12200704;19;19919;-81
2022/04/26 16:31:09;;;;;;;;;;;;;;;10.76;85.85;99823.66;12173448;19;19927;-81
2022/04/26 16:35:11;;;;;;;;;;;;;;;10.46;90.02;99833.09;12196279;19;19935;-80
2022/04/26 16:39:13;;;;;;;;;;;;;;;10.31;89.51;99830.06;12195374;19;20248;-81
2022/04/26 16:43:20;;;;;;;;;;;;;;;10.17;94.05;99840.53;12189889;19;19932;-80
2022/04/26 16:47:22;;;;;;;;;;;;;;;10.06;93.59;99844.16;12212855;19;19910;-80
2022/04/26 16:51:25;;;;;;;;;;;;;;;9.92;96.36;99846.38;12214002;19;20003;-77
2022/04/26 16:55:27;;;;;;;;;;;;;;;9.85;99.28;99850.34;12181553;19;19926;-78
2022/04/26 16:59:32;;;;;;;;;;;;;;;9.74;100.00;99852.06;12205576;19;19922;-78
2022/04/26 17:03:33;;;;;;;;;;;;;;;9.56;100.00;99859.38;12200179;19;19974;-81
2022/04/26 17:07:36;;;;;;;;;;;;;;;9.60;100.00;99856.97;12181155;19;19986;-80
2022/04/26 17:11:41;;;;;;;;;;;;;;;9.65;100.00;99864.53;12215638;19;19960;-81
2022/04/26 17:15:46;;;;;;;;;;;;;;;9.69;100.00;99869.28;12185891;19;19930;-83
2022/04/26 17:19:48;;;;;;;;;;;;;;;9.57;100.00;99871.22;12203743;19;19919;-83
2022/04/26 17:23:50;;;;;;;;;;;;;;;9.51;100.00;99870.28;12212491;19;20891;-84
2022/04/26 17:27:59;;;;;;;;;;;;;;;9.57;100.00;99879.47;12179526;19;19926;-83
2022/04/26 17:32:00;;;;;;;;;;;;;;;9.62;100.00;99876.00;12205589;19;19911;-83
2022/04/26 17:36:02;;;;;;;;;;;;;;;9.66;100.00;99882.69;12195986;19;19915;-83
2022/04/26 17:40:04;;;;;;;;;;;;;;;9.72;100.00;99895.47;12181907;19;19975;-82
2022/04/26 17:44:07;;;;;;;;;;;;;;;9.73;100.00;99900.75;12210237;19;19910;-83
2022/04/26 17:48:08;;;;;;;;;;;;;;;9.70;100.00;99916.91;12209103;19;19918;-82
2022/04/26 17:52:10;;;;;;;;;;;;;;;9.69;100.00;99906.97;12196253;19;19958;-82
2022/04/26 17:56:30;;;;;;;;;;;;;;;9.66;100.00;99921.22;12214682;19;19915;-81
2022/04/26 18:00:32;;;;;;;;;;;;;;;9.47;100.00;99921.34;12211811;19;19998;-83
2022/04/26 18:04:34;;;;;;;;;;;;;;;9.35;100.00;99929.59;12188014;19;19915;-80
2022/04/26 18:08:38;;;;;;;;;;;;;;;9.29;100.00;99937.97;12213770;19;20341;-82
2022/04/26 18:12:40;;;;;;;;;;;;;;;9.16;100.00;99932.69;12218753;19;19915;-81
2022/04/26 18:16:42;;;;;;;;;;;;;;;9.13;100.00;99940.34;12178125;19;19970;-80
2022/04/26 18:20:43;;;;;;;;;;;;;;;9.06;100.00;99950.59;12208897;19;19915;-81
2022/04/26 18:24:47;;;;;;;;;;;;;;;9.02;100.00;99952.16;12208424;19;20274;-83
2022/04/26 18:28:49;;;;;;;;;;;;;;;8.94;100.00;99958.00;12220237;19;20330;-82
2022/04/26 18:32:51;;;;;;;;;;;;;;;8.90;100.00;99962.31;12209087;19;19918;-82
2022/04/26 18:36:53;;;;;;;;;;;;;;;8.80;100.00;99962.84;12189583;19;19910;-83
2022/04/26 18:40:55;;;;;;;;;;;;;;;8.75;100.00;99978.38;12232374;19;20367;-82
2022/04/26 18:44:57;;;;;;;;;;;;;;;8.77;100.00;99982.56;12226411;19;20372;-83
2022/04/26 18:48:58;;;;;;;;;;;;;;;8.75;100.00;99970.16;12194536;19;19914;-82
2022/04/26 18:53:00;;;;;;;;;;;;;;;8.66;100.00;99983.38;12210696;19;20238;-82
2022/04/26 18:57:01;;;;;;;;;;;;;;;8.65;100.00;99996.25;12203821;19;19990;-81
2022/04/26 19:01:03;;;;;;;;;;;;;;;8.62;100.00;100006.88;12189128;19;19970;-82
2022/04/26 19:05:05;;;;;;;;;;;;;;;8.59;100.00;100008.16;12208379;19;20318;-82
2022/04/26 19:09:07;;;;;;;;;;;;;;;8.61;100.00;100019.78;12207160;19;20001;-82
2022/04/26 19:13:09;;;;;;;;;;;;;;;8.62;100.00;100024.19;12192650;19;20345;-82
2022/04/26 19:17:10;;;;;;;;;;;;;;;8.62;100.00;100028.84;12212904;19;19919;-82
2022/04/26 19:21:12;;;;;;;;;;;;;;;8.59;100.00;100038.38;12215226;19;19910;-81
2022/04/26 19:25:13;;;;;;;;;;;;;;;8.56;100.00;100043.50;12179905;19;19928;-81
2022/04/26 19:29:15;;;;;;;;;;;;;;;8.50;100.00;100047.19;12207261;19;19918;-81
2022/04/26 19:33:16;;;;;;;;;;;;;;;8.44;100.00;100054.44;12202557;19;19952;-81
2022/04/26 19:37:21;;;;;;;;;;;;;;;8.48;100.00;100058.41;12187092;19;19921;-82
2022/04/26 19:41:23;;;;;;;;;;;;;;;8.47;100.00;100058.63;12203926;19;19982;-81
2022/04/26 19:45:24;;;;;;;;;;;;;;;8.49;100.00;100051.84;12207149;19;19987;-81
2022/04/26 19:49:26;;;;;;;;;;;;;;;8.52;100.00;100059.63;12182163;19;19915;-81
2022/04/26 19:53:28;;;;;;;;;;;;;;;8.56;100.00;100070.97;12209350;19;19918;-81
2022/04/26 19:57:29;;;;;;;;;;;;;;;8.51;100.00;100070.84;12204174;19;19915;-81
2022/04/26 20:01:31;;;;;;;;;;;;;;;8.51;100.00;100065.34;12181756;19;19922;-81
2022/04/26 20:05:53;;;;;;;;;;;;;;;8.49;100.00;100076.56;12207290;19;19920;-81
2022/04/26 20:09:55;;;;;;;;;;;;;;;8.42;100.00;100075.81;12173653;19;19907;-81
2022/04/26 20:13:59;;;;;;;;;;;;;;;8.32;100.00;100083.69;12203984;19;19979;-80
2022/04/26 20:18:01;;;;;;;;;;;;;;;8.24;100.00;100093.09;12198894;19;19915;-82
2022/04/26 20:22:02;;;;;;;;;;;;;;;8.22;100.00;100076.81;12189082;19;19932;-81
2022/04/26 20:30:24;;;;;;;;;;;;;;;8.14;100.00;100085.34;12206219;19;19987;-81
2022/04/26 20:34:25;;;;;;;;;;;;;;;8.07;100.00;100089.25;12180072;19;19934;-81
2022/04/26 20:38:30;;;;;;;;;;;;;;;8.04;100.00;100089.69;12203704;19;19914;-82
2022/04/26 20:42:32;;;;;;;;;;;;;;;8.03;100.00;100094.34;12199086;19;19930;-80
2022/04/26 20:46:33;;;;;;;;;;;;;;;8.03;100.00;100097.09;12184344;19;20021;-83
2022/04/26 20:50:35;;;;;;;;;;;;;;;8.06;100.00;100104.88;12203102;19;19938;-84
2022/04/26 20:54:36;;;;;;;;;;;;;;;8.09;100.00;100101.69;12198991;19;19985;-82
2022/04/26 20:58:39;;;;;;;;;;;;;;;8.01;100.00;100106.63;12175086;19;19911;-82
2022/04/26 21:02:40;;;;;;;;;;;;;;;8.02;100.00;100119.25;12199780;19;20009;-83
2022/04/26 21:06:43;;;;;;;;;;;;;;;7.98;100.00;100118.88;12198402;19;20340;-83
2022/04/26 21:10:46;;;;;;;;;;;;;;;8.03;100.00;100121.81;12173319;19;20330;-83
2022/04/26 21:14:48;;;;;;;;;;;;;;;8.07;100.00;100128.50;12202898;19;20303;-83
2022/04/26 21:18:49;;;;;;;;;;;;;;;8.00;100.00;100133.19;12184202;19;19928;-83
2022/04/26 21:22:51;;;;;;;;;;;;;;;7.97;100.00;100139.13;12209742;19;19946;-83
2022/04/26 21:26:53;;;;;;;;;;;;;;;7.98;100.00;100140.84;12208210;19;19911;-83
2022/04/26 21:30:54;;;;;;;;;;;;;;;7.94;100.00;100145.06;12193573;19;19966;-82
2022/04/26 21:34:56;;;;;;;;;;;;;;;7.89;100.00;100137.53;12207848;19;20019;-83
2022/04/26 21:38:59;;;;;;;;;;;;;;;7.89;100.00;100136.69;12221881;19;20348;-82
2022/04/26 21:43:00;;;;;;;;;;;;;;;7.88;100.00;100137.75;12184876;19;19918;-83
2022/04/26 21:47:02;;;;;;;;;;;;;;;7.85;100.00;100132.72;12215043;19;19974;-83
2022/04/26 21:55:24;;;;;;;;;;;;;;;7.68;100.00;100135.19;12202221;19;20028;-82
2022/04/26 21:59:26;;;;;;;;;;;;;;;7.64;100.00;100136.66;12228594;19;19919;-82
2022/04/26 22:03:27;;;;;;;;;;;;;;;7.55;100.00;100141.59;12218937;19;19914;-83
2022/04/26 22:07:29;;;;;;;;;;;;;;;7.54;100.00;100146.25;12197986;19;19927;-82
2022/04/26 22:11:33;;;;;;;;;;;;;;;7.57;100.00;100146.88;12209558;19;19914;-82
2022/04/26 22:15:35;;;;;;;;;;;;;;;7.60;100.00;100155.47;12219136;19;19907;-83
2022/04/26 22:19:37;;;;;;;;;;;;;;;7.63;100.00;100148.72;12194776;19;19924;-83
2022/04/26 22:23:39;;;;;;;;;;;;;;;7.67;100.00;100149.94;12218130;19;20547;-82
2022/04/26 22:27:41;;;;;;;;;;;;;;;7.67;100.00;100150.78;12213030;19;19932;-82
2022/04/26 22:31:42;;;;;;;;;;;;;;;7.64;100.00;100151.22;12192677;19;20365;-82
2022/04/26 22:35:44;;;;;;;;;;;;;;;7.65;100.00;100155.66;12207510;19;19920;-82
2022/04/26 22:39:45;;;;;;;;;;;;;;;7.69;100.00;100165.13;12205221;19;19974;-82
2022/04/26 22:43:47;;;;;;;;;;;;;;;7.71;100.00;100163.00;12212701;19;20270;-82
2022/04/26 22:47:49;;;;;;;;;;;;;;;7.75;100.00;100168.88;12210529;19;19920;-82
2022/04/26 22:51:50;;;;;;;;;;;;;;;7.76;100.00;100170.53;12184440;19;19938;-82
2022/04/26 22:55:52;;;;;;;;;;;;;;;7.78;100.00;100178.56;12213249;19;19913;-82
2022/04/26 22:59:53;;;;;;;;;;;;;;;7.80;100.00;100174.53;12203724;19;20332;-83
2022/04/26 23:03:55;;;;;;;;;;;;;;;7.79;100.00;100178.34;12190875;19;19914;-83
2022/04/26 23:07:57;;;;;;;;;;;;;;;7.82;100.00;100177.88;12213650;19;20423;-82
2022/04/26 23:11:58;;;;;;;;;;;;;;;7.84;100.00;100188.66;12212642;19;20654;-82
2022/04/26 23:16:00;;;;;;;;;;;;;;;7.78;100.00;100189.53;12185262;19;19910;-81
2022/04/26 23:20:03;;;;;;;;;;;;;;;7.78;100.00;100195.88;12202967;19;19918;-81
2022/04/26 23:24:09;;;;;;;;;;;;;;;7.80;100.00;100191.00;12206818;19;19927;-82
2022/04/26 23:28:11;;;;;;;;;;;;;;;7.85;100.00;100190.31;12187214;19;19922;-81
2022/04/26 23:32:12;;;;;;;;;;;;;;;7.87;100.00;100196.44;12217002;19;19938;-81
2022/04/26 23:36:14;;;;;;;;;;;;;;;7.86;100.00;100200.25;12204369;19;19919;-82
2022/04/26 23:40:15;;;;;;;;;;;;;;;7.87;100.00;100211.00;12179144;19;19915;-81
2022/04/26 23:44:17;;;;;;;;;;;;;;;7.88;100.00;100203.59;12205805;19;19989;-81
2022/04/26 23:48:19;;;;;;;;;;;;;;;7.89;100.00;100197.06;12203865;19;19915;-80
2022/04/26 23:56:41;;;;;;;;;;;;;;;7.88;100.00;100203.59;12212696;19;19982;-82
